createdAt,value
2023-05-06T00:01:47.890Z,57.42
2023-05-06T00:06:56.910Z,57.39
2023-05-06T00:12:05.684Z,57.42
2023-05-06T00:17:12.725Z,57.43
2023-05-06T00:22:19.824Z,57.57
2023-05-06T00:27:26.772Z,57.52
2023-05-06T00:32:33.871Z,57.68
2023-05-06T00:37:40.879Z,57.57
2023-05-06T00:42:47.773Z,57.59
2023-05-06T00:47:55.405Z,57.74
2023-05-06T00:53:01.649Z,57.74
2023-05-06T00:58:08.782Z,57.73
2023-05-06T01:03:16.254Z,57.76
2023-05-06T01:08:31.030Z,57.69
2023-05-06T01:13:46.801Z,57.51
2023-05-06T01:18:56.103Z,57.51
2023-05-06T01:24:03.795Z,57.38
2023-05-06T01:29:10.714Z,57.26
2023-05-06T01:34:26.718Z,57.21
2023-05-06T01:39:35.372Z,57.07
2023-05-06T01:44:44.628Z,56.91
2023-05-06T01:49:52.034Z,56.81
2023-05-06T01:54:58.897Z,56.77
2023-05-06T02:00:06.900Z,56.71
2023-05-06T02:05:19.138Z,56.31
2023-05-06T02:10:26.834Z,56.19
2023-05-06T02:15:40.988Z,56.11
2023-05-06T02:20:52.394Z,56.02
2023-05-06T02:25:59.484Z,55.78
2023-05-06T02:31:06.516Z,55.53
2023-05-06T02:36:13.517Z,55.44
2023-05-06T02:41:20.868Z,55.29
2023-05-06T02:46:27.918Z,54.86
2023-05-06T02:51:35.137Z,54.85
2023-05-06T02:56:43.905Z,54.64
2023-05-06T03:01:51.027Z,54.45
2023-05-06T03:06:58.515Z,54.33
2023-05-06T03:12:06.360Z,54.17
2023-05-06T03:17:13.559Z,54.21
2023-05-06T03:22:20.590Z,54.09
2023-05-06T03:27:28.187Z,53.89
2023-05-06T03:32:38.584Z,53.66
2023-05-06T03:37:47.636Z,53.58
2023-05-06T03:42:55.789Z,53.37
2023-05-06T03:48:03.339Z,53.20
2023-05-06T03:53:11.131Z,53.17
2023-05-06T03:58:19.578Z,53.07
2023-05-06T04:03:27.094Z,52.80
2023-05-06T04:08:33.694Z,52.79
2023-05-06T04:13:41.830Z,52.79
2023-05-06T04:18:53.346Z,52.63
2023-05-06T04:24:00.487Z,52.39
2023-05-06T04:29:13.095Z,52.35
2023-05-06T04:34:27.931Z,52.39
2023-05-06T04:39:39.497Z,52.40
2023-05-06T04:44:47.238Z,52.33
2023-05-06T04:49:55.122Z,52.34
2023-05-06T04:55:02.776Z,52.13
2023-05-06T05:00:13.110Z,51.91
2023-05-06T05:05:21.051Z,52.00
2023-05-06T05:10:30.234Z,51.97
2023-05-06T05:15:38.664Z,51.86
2023-05-06T05:20:46.119Z,51.76
2023-05-06T05:25:53.878Z,51.71
2023-05-06T05:31:06.338Z,51.66
2023-05-06T05:36:16.235Z,51.75
2023-05-06T05:41:25.645Z,51.56
2023-05-06T05:46:34.047Z,51.50
2023-05-06T05:51:42.626Z,51.54
2023-05-06T05:56:50.621Z,51.51
2023-05-06T06:01:57.834Z,51.58
2023-05-06T06:07:05.692Z,51.51
2023-05-06T06:12:16.290Z,51.68
2023-05-06T06:17:23.904Z,51.63
2023-05-06T06:22:32.770Z,51.66
2023-05-06T06:27:40.992Z,51.75
2023-05-06T06:32:55.390Z,51.85
2023-05-06T06:38:04.153Z,51.82
2023-05-06T06:43:11.748Z,52.01
2023-05-06T06:48:27.634Z,52.11
2023-05-06T06:53:35.276Z,52.19
2023-05-06T06:58:43.021Z,52.35
2023-05-06T07:03:52.258Z,52.57
2023-05-06T07:09:00.841Z,52.51
2023-05-06T07:14:08.674Z,52.48
2023-05-06T07:19:17.071Z,52.60
2023-05-06T07:24:25.557Z,52.99
2023-05-06T07:29:35.004Z,53.29
2023-05-06T07:34:42.712Z,53.47
2023-05-06T07:39:53.305Z,53.61
2023-05-06T07:45:01.073Z,53.94
2023-05-06T07:50:10.743Z,54.14
2023-05-06T07:55:17.866Z,54.54
2023-05-06T08:00:26.441Z,54.97
2023-05-06T08:05:33.661Z,55.20
2023-05-06T08:10:42.605Z,55.59
2023-05-06T08:15:50.191Z,56.08
2023-05-06T08:20:57.484Z,56.50
2023-05-06T08:26:04.900Z,56.77
2023-05-06T08:31:12.052Z,57.25
2023-05-06T08:36:19.653Z,57.57
2023-05-06T08:41:27.746Z,57.87
2023-05-06T08:46:34.898Z,58.26
2023-05-06T08:51:44.367Z,59.04
2023-05-06T08:56:56.896Z,59.24
2023-05-06T09:02:04.787Z,59.52
2023-05-06T09:07:10.325Z,59.76
2023-05-06T09:12:17.340Z,60.10
2023-05-06T09:17:28.360Z,60.55
2023-05-06T09:22:38.549Z,60.87
2023-05-06T09:27:45.607Z,61.18
2023-05-06T09:32:53.789Z,61.34
2023-05-06T09:38:00.897Z,61.50
2023-05-06T09:43:10.928Z,61.94
2023-05-06T09:48:18.070Z,62.40
2023-05-06T09:53:25.402Z,62.43
2023-05-06T09:58:34.207Z,62.81
2023-05-06T10:03:43.416Z,63.31
2023-05-06T10:08:51.650Z,63.47
2023-05-06T10:14:00.209Z,63.84
2023-05-06T10:19:09.791Z,64.02
2023-05-06T10:24:24.768Z,64.34
2023-05-06T10:29:33.157Z,64.78
2023-05-06T10:34:47.124Z,64.78
2023-05-06T10:39:56.538Z,65.08
2023-05-06T10:45:05.262Z,65.15
2023-05-06T10:50:24.857Z,65.26
2023-05-06T10:55:33.873Z,65.50
2023-05-06T11:00:43.648Z,65.46
2023-05-06T11:05:54.787Z,65.92
2023-05-06T11:11:04.501Z,65.73
2023-05-06T11:16:53.668Z,66.03
2023-05-06T11:22:05.843Z,66.13
2023-05-06T11:27:26.728Z,66.28
2023-05-06T11:32:37.223Z,66.30
2023-05-06T11:37:46.812Z,66.61
2023-05-06T11:42:57.308Z,67.00
2023-05-06T11:48:08.848Z,67.19
2023-05-06T11:53:20.285Z,67.33
2023-05-06T11:58:30.620Z,67.17
2023-05-06T12:03:37.851Z,67.34
2023-05-06T12:08:46.940Z,67.34
2023-05-06T12:13:54.626Z,67.27
2023-05-06T12:19:02.029Z,67.30
2023-05-06T12:24:09.317Z,67.60
2023-05-06T12:29:18.440Z,67.60
2023-05-06T12:34:39.459Z,67.70
2023-05-06T12:39:46.460Z,67.76
2023-05-06T12:44:53.523Z,67.86
2023-05-06T12:50:01.748Z,67.88
2023-05-06T12:55:10.083Z,67.82
2023-05-06T13:00:19.166Z,67.98
2023-05-06T13:05:26.170Z,68.04
2023-05-06T13:10:33.168Z,68.09
2023-05-06T13:15:40.836Z,68.20
2023-05-06T13:20:47.862Z,68.17
2023-05-06T13:26:04.316Z,68.13
2023-05-06T13:31:12.755Z,68.24
2023-05-06T13:36:20.550Z,68.18
2023-05-06T13:41:26.482Z,68.24
2023-05-06T13:46:33.882Z,68.28
2023-05-06T13:51:41.259Z,68.38
2023-05-06T13:56:48.626Z,68.39
2023-05-06T14:01:56.110Z,68.43
2023-05-06T14:07:04.208Z,68.46
2023-05-06T14:12:11.724Z,68.44
2023-05-06T14:17:19.772Z,68.56
2023-05-06T14:22:30.422Z,68.87
2023-05-06T14:27:37.420Z,68.86
2023-05-06T14:32:47.030Z,68.88
2023-05-06T14:37:54.326Z,68.70
2023-05-06T14:43:01.424Z,68.72
2023-05-06T14:48:08.910Z,68.80
2023-05-06T14:53:16.070Z,68.80
2023-05-06T14:58:23.759Z,68.84
2023-05-06T15:03:30.117Z,68.87
2023-05-06T15:08:54.995Z,68.98
2023-05-06T15:14:02.240Z,68.90
2023-05-06T15:19:12.750Z,68.96
2023-05-06T15:24:20.174Z,69.04
2023-05-06T15:29:27.335Z,69.20
2023-05-06T15:34:34.628Z,69.22
2023-05-06T15:39:41.618Z,69.16
2023-05-06T15:44:51.570Z,69.27
2023-05-06T15:49:59.636Z,69.34
2023-05-06T15:55:07.472Z,69.40
2023-05-06T16:00:16.672Z,69.39
2023-05-06T16:05:23.684Z,69.46
2023-05-06T16:10:30.745Z,69.55
2023-05-06T16:15:37.906Z,69.66
2023-05-06T16:20:45.916Z,69.49
2023-05-06T16:25:55.660Z,69.61
2023-05-06T16:31:04.989Z,69.57
2023-05-06T16:36:14.972Z,69.60
2023-05-06T16:41:25.680Z,69.63
2023-05-06T16:46:48.677Z,69.68
2023-05-06T16:52:15.132Z,69.83
2023-05-06T16:57:25.355Z,69.73
2023-05-06T17:02:33.294Z,70.05
2023-05-06T17:07:42.547Z,69.96
2023-05-06T17:12:53.042Z,70.01
2023-05-06T17:18:10.180Z,69.89
2023-05-06T17:23:26.592Z,69.96
2023-05-06T17:28:35.556Z,70.11
2023-05-06T17:33:42.837Z,70.02
2023-05-06T17:38:51.496Z,69.97
2023-05-06T17:43:58.862Z,69.85
2023-05-06T17:49:05.969Z,70.12
2023-05-06T17:54:14.020Z,70.23
2023-05-06T17:59:21.170Z,70.22
2023-05-06T18:04:28.246Z,70.08
2023-05-06T18:09:37.239Z,70.11
2023-05-06T18:14:44.382Z,70.16
2023-05-06T18:19:53.113Z,70.19
2023-05-06T18:25:00.299Z,70.29
2023-05-06T18:30:09.127Z,70.34
2023-05-06T18:35:16.223Z,70.36
2023-05-06T18:40:27.350Z,70.12
2023-05-06T18:45:34.419Z,70.36
2023-05-06T18:50:44.713Z,70.38
2023-05-06T18:55:54.416Z,70.32
2023-05-06T19:01:11.179Z,70.43
2023-05-06T19:06:22.409Z,70.55
2023-05-06T19:11:30.415Z,70.38
2023-05-06T19:16:45.166Z,70.41
2023-05-06T19:21:52.892Z,70.33
2023-05-06T19:27:03.841Z,70.38
2023-05-06T19:32:13.719Z,70.45
2023-05-06T19:37:22.145Z,70.54
2023-05-06T19:42:29.385Z,70.48
2023-05-06T19:47:37.982Z,70.54
2023-05-06T19:52:53.701Z,70.68
2023-05-06T19:58:17.406Z,70.59
2023-05-06T20:03:26.077Z,70.84
2023-05-06T20:08:33.626Z,70.85
2023-05-06T20:13:41.089Z,70.65
2023-05-06T20:18:49.866Z,70.63
2023-05-06T20:24:02.372Z,70.71
2023-05-06T20:29:10.305Z,70.78
2023-05-06T20:34:17.800Z,70.86
2023-05-06T20:39:26.721Z,71.02
2023-05-06T20:44:35.065Z,71.09
2023-05-06T20:49:48.961Z,71.08
2023-05-06T20:54:58.532Z,71.15
2023-05-06T21:00:08.876Z,71.15
2023-05-06T21:05:16.470Z,71.16
2023-05-06T21:10:23.569Z,71.13
2023-05-06T21:15:32.732Z,71.13
2023-05-06T21:20:39.886Z,71.05
2023-05-06T21:25:47.167Z,70.92
2023-05-06T21:30:54.265Z,71.05
2023-05-06T21:36:01.376Z,71.15
2023-05-06T21:41:08.428Z,71.14
2023-05-06T21:46:15.449Z,71.19
2023-05-06T21:51:22.547Z,71.26
2023-05-06T21:56:29.692Z,71.33
2023-05-06T22:01:37.237Z,71.35
2023-05-06T22:06:44.811Z,71.41
2023-05-06T22:11:52.379Z,71.49
2023-05-06T22:16:59.701Z,71.51
2023-05-06T22:22:06.703Z,71.59
2023-05-06T22:27:13.873Z,71.50
2023-05-06T22:32:21.676Z,71.57
2023-05-06T22:37:28.666Z,71.58
2023-05-06T22:42:35.846Z,71.76
2023-05-06T22:47:42.873Z,71.61
2023-05-06T22:52:50.091Z,71.50
2023-05-06T22:57:57.065Z,71.60
2023-05-06T23:03:04.131Z,71.56
2023-05-06T23:08:11.232Z,71.49
2023-05-06T23:13:18.205Z,71.47
2023-05-06T23:18:25.359Z,71.53
2023-05-06T23:23:33.092Z,71.50
2023-05-06T23:28:40.135Z,71.55
2023-05-06T23:33:47.183Z,71.63
2023-05-06T23:38:54.162Z,71.55
2023-05-06T23:44:01.220Z,71.47
2023-05-06T23:49:08.515Z,71.40
2023-05-06T23:54:15.828Z,71.53
2023-05-06T23:59:22.882Z,71.55
